createdAt,value
2022-07-28T00:02:35.786Z,17.00
2022-07-28T00:07:38.473Z,14.10
2022-07-28T00:12:40.996Z,19.73
2022-07-28T00:17:43.689Z,11.63
2022-07-28T00:22:46.121Z,20.10
2022-07-28T00:27:48.656Z,17.67
2022-07-28T00:32:51.189Z,13.00
2022-07-28T00:37:53.638Z,17.33
2022-07-28T00:42:56.812Z,11.27
2022-07-28T00:47:59.225Z,14.30
2022-07-28T00:53:01.827Z,9.77
2022-07-28T00:58:04.337Z,8.60
2022-07-28T01:03:07.532Z,9.93
2022-07-28T01:08:21.398Z,8.33
2022-07-28T01:13:44.073Z,11.93
2022-07-28T01:19:14.612Z,12.33
2022-07-28T01:24:24.174Z,8.90
2022-07-28T01:30:02.799Z,12.93
2022-07-28T01:35:24.909Z,9.17
2022-07-28T01:40:32.620Z,8.93
2022-07-28T01:45:38.137Z,15.33
2022-07-28T01:50:42.608Z,11.13
2022-07-28T01:55:46.334Z,12.37
2022-07-28T02:00:50.835Z,8.63
2022-07-28T02:05:55.345Z,12.03
2022-07-28T02:11:18.843Z,11.90
2022-07-28T02:16:24.292Z,10.40
2022-07-28T02:21:30.024Z,10.47
2022-07-28T02:26:38.123Z,16.90
2022-07-28T02:32:23.984Z,9.53
2022-07-28T02:37:37.869Z,10.50
2022-07-28T02:42:41.286Z,14.47
2022-07-28T02:47:51.829Z,12.20
2022-07-28T02:52:58.667Z,10.70
2022-07-28T02:58:02.128Z,8.80
2022-07-28T03:03:09.889Z,10.30
2022-07-28T03:08:12.535Z,13.63
2022-07-28T03:13:14.967Z,21.63
2022-07-28T03:18:17.383Z,15.03
2022-07-28T03:23:24.218Z,19.93
2022-07-28T03:28:28.517Z,13.53
2022-07-28T03:33:31.707Z,17.37
2022-07-28T03:38:43.979Z,9.43
2022-07-28T03:43:47.761Z,13.43
2022-07-28T03:48:50.232Z,17.47
2022-07-28T03:53:52.772Z,21.00
2022-07-28T03:58:55.289Z,23.23
2022-07-28T04:03:57.980Z,13.03
2022-07-28T04:09:00.598Z,18.57
2022-07-28T04:14:03.020Z,11.60
2022-07-28T04:19:05.521Z,18.70
2022-07-28T04:24:10.820Z,56.73
2022-07-28T04:29:13.335Z,41.67
2022-07-28T04:34:16.443Z,41.73
2022-07-28T04:39:19.263Z,42.00
2022-07-28T04:44:21.721Z,30.53
2022-07-28T04:49:24.163Z,28.53
2022-07-28T04:54:26.923Z,28.97
2022-07-28T04:59:29.568Z,26.63
2022-07-28T05:04:34.696Z,32.37
2022-07-28T05:09:37.728Z,46.93
2022-07-28T05:14:40.172Z,22.03
2022-07-28T05:19:42.855Z,20.87
2022-07-28T05:24:45.747Z,22.13
2022-07-28T05:29:48.321Z,21.67
2022-07-28T05:34:50.827Z,11.90
2022-07-28T05:39:53.306Z,10.70
2022-07-28T05:44:55.777Z,16.80
2022-07-28T05:50:01.769Z,41.10
2022-07-28T05:55:05.655Z,11.40
2022-07-28T06:00:14.155Z,17.77
2022-07-28T06:05:17.997Z,21.27
2022-07-28T06:10:23.810Z,13.17
2022-07-28T06:15:28.039Z,12.53
2022-07-28T06:20:30.488Z,9.33
2022-07-28T06:25:33.267Z,7.77
2022-07-28T06:30:35.722Z,5.97
2022-07-28T06:35:46.534Z,12.02
2022-07-28T06:40:52.616Z,5.97
2022-07-28T06:45:55.641Z,7.10
2022-07-28T06:50:59.715Z,6.43
2022-07-28T06:56:04.134Z,7.70
2022-07-28T07:01:07.973Z,14.52
2022-07-28T07:06:11.221Z,6.55
2022-07-28T07:11:13.974Z,7.90
2022-07-28T07:16:18.748Z,9.73
2022-07-28T07:21:21.372Z,3.20
2022-07-28T07:26:25.655Z,7.72
2022-07-28T07:31:28.188Z,8.52
2022-07-28T07:36:30.704Z,7.00
2022-07-28T07:41:33.158Z,8.55
2022-07-28T07:46:39.620Z,9.15
2022-07-28T07:51:42.098Z,9.60
2022-07-28T07:56:44.544Z,5.40
2022-07-28T08:01:50.830Z,7.57
2022-07-28T08:06:53.931Z,9.57
2022-07-28T08:11:57.333Z,8.35
2022-07-28T08:16:59.789Z,6.93
2022-07-28T08:22:02.559Z,5.88
2022-07-28T08:27:05.779Z,6.20
2022-07-28T08:32:08.351Z,6.53
2022-07-28T08:37:10.779Z,6.20
2022-07-28T08:42:20.526Z,10.82
2022-07-28T08:47:23.469Z,5.53
2022-07-28T08:52:29.644Z,5.15
2022-07-28T08:57:35.460Z,8.20
2022-07-28T09:02:41.381Z,8.85
2022-07-28T09:07:45.672Z,4.47
2022-07-28T09:12:48.145Z,5.90
2022-07-28T09:17:50.932Z,3.63
2022-07-28T09:22:57.599Z,5.68
2022-07-28T09:28:10.173Z,8.20
2022-07-28T09:33:41.800Z,4.32
2022-07-28T09:38:42.831Z,4.85
2022-07-28T09:43:49.775Z,4.90
2022-07-28T09:49:01.669Z,3.75
2022-07-28T09:54:16.279Z,6.95
2022-07-28T09:59:19.733Z,4.13
2022-07-28T10:04:31.711Z,5.00
2022-07-28T10:09:34.612Z,4.68
2022-07-28T10:14:37.299Z,5.75
2022-07-28T10:19:40.811Z,5.80
2022-07-28T10:24:46.499Z,4.80
2022-07-28T10:30:00.563Z,5.72
2022-07-28T10:35:06.563Z,8.07
2022-07-28T10:40:11.460Z,12.90
2022-07-28T10:45:14.117Z,10.82
2022-07-28T10:50:17.120Z,11.52
2022-07-28T10:55:38.490Z,8.60
2022-07-28T11:01:05.512Z,4.88
2022-07-28T11:06:37.031Z,8.25
2022-07-28T11:11:53.910Z,8.50
2022-07-28T11:17:05.606Z,5.78
2022-07-28T11:22:18.705Z,3.90
2022-07-28T11:27:42.704Z,6.63
2022-07-28T11:32:51.033Z,3.47
2022-07-28T11:38:02.863Z,5.80
2022-07-28T11:43:35.817Z,5.32
2022-07-28T11:48:42.851Z,10.13
2022-07-28T11:53:48.060Z,7.45
2022-07-28T11:59:18.135Z,3.10
2022-07-28T12:04:26.352Z,3.47
2022-07-28T12:09:41.715Z,4.10
2022-07-28T12:14:46.321Z,11.75
2022-07-28T12:19:48.869Z,6.78
2022-07-28T12:24:57.900Z,5.45
2022-07-28T12:30:02.119Z,6.93
2022-07-28T12:35:05.336Z,8.07
2022-07-28T12:40:10.631Z,4.35
2022-07-28T12:45:13.662Z,9.13
2022-07-28T12:50:17.644Z,3.88
2022-07-28T12:55:25.739Z,13.02
2022-07-28T13:00:34.295Z,2.78
2022-07-28T13:06:02.828Z,6.45
2022-07-28T13:11:09.822Z,4.50
2022-07-28T13:16:20.520Z,7.50
2022-07-28T13:21:58.509Z,3.17
2022-07-28T13:27:04.001Z,6.43
2022-07-28T13:32:07.001Z,11.40
2022-07-28T13:37:10.147Z,12.57
2022-07-28T13:42:13.301Z,8.68
2022-07-28T13:47:16.703Z,6.00
2022-07-28T13:52:33.241Z,3.38
2022-07-28T13:57:37.765Z,3.15
2022-07-28T14:02:48.843Z,7.72
2022-07-28T14:07:51.498Z,4.53
2022-07-28T14:12:54.119Z,3.08
2022-07-28T14:17:56.686Z,4.28
2022-07-28T14:22:59.243Z,7.10
2022-07-28T14:28:01.698Z,4.68
2022-07-28T14:33:06.374Z,3.88
2022-07-28T14:43:32.987Z,6.72
2022-07-28T14:48:35.481Z,6.78
2022-07-28T14:53:43.210Z,9.65
2022-07-28T14:58:47.815Z,5.65
2022-07-28T15:03:50.242Z,6.18
2022-07-28T15:08:55.628Z,9.80
2022-07-28T15:14:00.695Z,9.57
2022-07-28T15:19:03.701Z,6.90
2022-07-28T15:24:08.658Z,5.18
2022-07-28T15:29:14.441Z,4.07
2022-07-28T15:34:17.784Z,11.02
2022-07-28T15:39:21.607Z,8.45
2022-07-28T15:44:26.388Z,12.23
2022-07-28T15:49:29.537Z,7.50
2022-07-28T15:54:33.003Z,8.55
2022-07-28T15:59:49.231Z,9.75
2022-07-28T16:04:55.559Z,3.28
2022-07-28T16:10:00.505Z,16.67
2022-07-28T16:15:04.574Z,16.60
2022-07-28T16:20:10.149Z,4.47
2022-07-28T16:25:20.590Z,20.60
2022-07-28T16:30:23.481Z,16.42
2022-07-28T16:35:26.257Z,13.93
2022-07-28T16:40:30.799Z,10.80
2022-07-28T16:45:35.440Z,10.50
2022-07-28T16:50:38.507Z,13.82
2022-07-28T16:55:42.312Z,11.38
2022-07-28T17:00:46.219Z,5.38
2022-07-28T17:05:49.549Z,6.60
2022-07-28T17:10:55.067Z,8.23
2022-07-28T17:15:59.809Z,16.65
2022-07-28T17:21:02.313Z,7.50
2022-07-28T17:31:28.625Z,16.20
2022-07-28T17:36:37.130Z,6.53
2022-07-28T17:41:41.147Z,9.15
2022-07-28T17:46:45.496Z,8.52
2022-07-28T17:51:48.518Z,6.45
2022-07-28T17:56:54.150Z,7.32
2022-07-28T18:01:56.660Z,10.23
2022-07-28T18:06:59.146Z,5.97
2022-07-28T18:12:01.558Z,7.10
2022-07-28T18:17:04.073Z,5.50
2022-07-28T18:22:06.524Z,8.88
2022-07-28T18:27:09.091Z,23.63
2022-07-28T18:32:12.367Z,12.02
2022-07-28T18:37:15.041Z,8.95
2022-07-28T18:42:17.976Z,27.20
2022-07-28T18:47:20.975Z,221.48
2022-07-28T18:52:24.443Z,163.77
2022-07-28T18:57:26.948Z,90.95
2022-07-28T19:02:29.486Z,60.38
2022-07-28T19:07:32.425Z,52.45
2022-07-28T19:12:34.938Z,53.38
2022-07-28T19:17:39.919Z,103.47
2022-07-28T19:22:42.493Z,42.40
2022-07-28T19:27:45.082Z,31.70
2022-07-28T19:32:47.571Z,26.23
2022-07-28T19:37:50.844Z,14.90
2022-07-28T19:42:53.889Z,11.70
2022-07-28T19:47:56.345Z,12.00
2022-07-28T19:52:59.163Z,10.80
2022-07-28T19:58:04.097Z,11.32
2022-07-28T20:03:59.738Z,15.70
2022-07-28T20:08:31.256Z,10.97
2022-07-28T20:13:34.391Z,9.70
2022-07-28T20:18:37.043Z,10.67
2022-07-28T20:23:41.022Z,13.63
2022-07-28T20:28:44.203Z,20.43
2022-07-28T20:33:47.454Z,15.73
2022-07-28T20:38:49.959Z,13.20
2022-07-28T20:44:18.193Z,19.03
2022-07-28T20:49:15.439Z,7.83
2022-07-28T20:54:18.912Z,12.90
2022-07-28T20:59:27.456Z,12.93
2022-07-28T21:04:30.550Z,12.23
2022-07-28T21:09:33.347Z,11.63
2022-07-28T21:14:35.945Z,17.10
2022-07-28T21:19:38.318Z,11.47
2022-07-28T21:24:40.702Z,10.33
2022-07-28T21:29:43.177Z,14.53
2022-07-28T21:34:45.835Z,9.03
2022-07-28T21:39:48.329Z,12.73
2022-07-28T21:44:51.080Z,12.47
2022-07-28T21:49:56.269Z,12.40
2022-07-28T21:54:58.769Z,12.30
2022-07-28T22:00:01.671Z,6.83
2022-07-28T22:05:04.773Z,8.87
2022-07-28T22:10:07.763Z,9.20
2022-07-28T22:15:10.658Z,8.30
2022-07-28T22:20:13.181Z,9.10
2022-07-28T22:25:15.650Z,10.50
2022-07-28T22:30:18.172Z,13.60
2022-07-28T22:35:20.683Z,8.87
2022-07-28T22:40:23.134Z,11.00
2022-07-28T22:45:51.003Z,12.23
2022-07-28T22:50:48.610Z,7.33
2022-07-28T22:55:51.134Z,8.23
2022-07-28T23:00:53.805Z,6.63
2022-07-28T23:06:00.765Z,8.27
2022-07-28T23:11:03.339Z,13.40
2022-07-28T23:16:09.064Z,15.37
2022-07-28T23:21:12.472Z,10.37
2022-07-28T23:26:15.000Z,8.77
2022-07-28T23:31:17.468Z,14.17
2022-07-28T23:36:26.318Z,11.57
2022-07-28T23:41:30.149Z,9.60
2022-07-28T23:46:33.076Z,8.17
2022-07-28T23:51:47.487Z,15.97
2022-07-28T23:56:52.737Z,9.40
